地図

経路データ

SID SEASON NUMBER BASIN SUBBASIN NAME ISO_TIME NATURE LAT LON WMO_WIND WMO_PRES WMO_AGENCY TRACK_TYPE DIST2LAND LANDFALL IFLAG USA_AGENCY USA_ATCF_ID USA_LAT USA_LON USA_RECORD USA_STATUS USA_WIND USA_PRES USA_SSHS USA_R34_NE USA_R34_SE USA_R34_SW USA_R34_NW USA_R50_NE USA_R50_SE USA_R50_SW USA_R50_NW USA_R64_NE USA_R64_SE USA_R64_SW USA_R64_NW USA_POCI USA_ROCI USA_RMW USA_EYE TOKYO_LAT TOKYO_LON TOKYO_GRADE TOKYO_WIND TOKYO_PRES TOKYO_R50_DIR TOKYO_R50_LONG TOKYO_R50_SHORT TOKYO_R30_DIR TOKYO_R30_LONG TOKYO_R30_SHORT TOKYO_LAND CMA_LAT CMA_LON CMA_CAT CMA_WIND CMA_PRES HKO_LAT HKO_LON HKO_CAT HKO_WIND HKO_PRES NEWDELHI_LAT NEWDELHI_LON NEWDELHI_GRADE NEWDELHI_WIND NEWDELHI_PRES NEWDELHI_CI NEWDELHI_DP NEWDELHI_POCI REUNION_LAT REUNION_LON REUNION_TYPE REUNION_WIND REUNION_PRES REUNION_TNUM REUNION_CI REUNION_RMW REUNION_R34_NE REUNION_R34_SE REUNION_R34_SW REUNION_R34_NW REUNION_R50_NE REUNION_R50_SE REUNION_R50_SW REUNION_R50_NW REUNION_R64_NE REUNION_R64_SE REUNION_R64_SW REUNION_R64_NW BOM_LAT BOM_LON BOM_TYPE BOM_WIND BOM_PRES BOM_TNUM BOM_CI BOM_RMW BOM_R34_NE BOM_R34_SE BOM_R34_SW BOM_R34_NW BOM_R50_NE BOM_R50_SE BOM_R50_SW BOM_R50_NW BOM_R64_NE BOM_R64_SE BOM_R64_SW BOM_R64_NW BOM_ROCI BOM_POCI BOM_EYE BOM_POS_METHOD BOM_PRES_METHOD NADI_LAT NADI_LON NADI_CAT NADI_WIND NADI_PRES WELLINGTON_LAT WELLINGTON_LON WELLINGTON_WIND WELLINGTON_PRES DS824_LAT DS824_LON DS824_STAGE DS824_WIND DS824_PRES TD9636_LAT TD9636_LON TD9636_STAGE TD9636_WIND TD9636_PRES TD9635_LAT TD9635_LON TD9635_WIND TD9635_PRES TD9635_ROCI NEUMANN_LAT NEUMANN_LON NEUMANN_CLASS NEUMANN_WIND NEUMANN_PRES MLC_LAT MLC_LON MLC_CLASS MLC_WIND MLC_PRES USA_GUST BOM_GUST BOM_GUST_PER REUNION_GUST REUNION_GUST_PER USA_SEAHGT USA_SEARAD_NE USA_SEARAD_SE USA_SEARAD_SW USA_SEARAD_NW STORM_SPEED STORM_DIR
1895261N22122 1895 34 WP MM NOT_NAMED 1895-09-18 04:00:00 NR 21.5000 122.300 main 151 115 __________O___ -1 21.5000 122.300 4 10 310
1895261N22122 1895 34 WP MM NOT_NAMED 1895-09-18 06:00:00 NR 21.7089 122.030 main 115 72 __________P___ -1 21.7089 122.030 4 10 309
1895261N22122 1895 34 WP MM NOT_NAMED 1895-09-18 09:00:00 NR 22.0185 121.613 main 72 30 __________P___ -1 22.0185 121.613 4 10 307
1895261N22122 1895 34 WP MM NOT_NAMED 1895-09-18 12:00:00 NR 22.3197 121.167 main 30 0 __________P___ -1 22.3197 121.167 4 10 304
1895261N22122 1895 34 WP MM NOT_NAMED 1895-09-18 15:00:00 NR 22.6077 120.676 main 0 0 __________P___ -1 22.6077 120.676 4 11 302
1895261N22122 1895 34 WP MM NOT_NAMED 1895-09-18 16:00:00 NR 22.7000 120.500 main 0 0 __________O___ -1 22.7000 120.500 4 12 298
1895261N22122 1895 34 WP MM NOT_NAMED 1895-09-18 18:00:00 NR 22.8774 120.127 main 10 10 __________P___ -1 22.8774 120.127 4 12 295
1895261N22122 1895 34 WP MM NOT_NAMED 1895-09-18 21:00:00 NR 23.1186 119.529 main 61 61 __________P___ -1 23.1186 119.529 4 12 292
1895261N22122 1895 34 WP MM NOT_NAMED 1895-09-19 00:00:00 NR 23.3187 118.910 main 123 67 __________P___ -1 23.3187 118.910 4 12 287
1895261N22122 1895 34 WP MM NOT_NAMED 1895-09-19 03:00:00 NR 23.4652 118.298 main 67 54 __________P___ -1 23.4652 118.298 4 11 284
1895261N22122 1895 34 WP MM NOT_NAMED 1895-09-19 04:00:00 NR 23.5000 118.100 main 54 15 __________O___ -1 23.5000 118.100 7 11 282
1895261N22122 1895 34 WP MM NOT_NAMED 1895-09-19 06:00:00 NR 23.5712 117.733 main 15 0 __________P___ -1 23.5712 117.733 7 10 279
1895261N22122 1895 34 WP MM NOT_NAMED 1895-09-19 09:00:00 NR 23.6287 117.201 main 0 0 __________P___ -1 23.6287 117.201 7 10 273
1895261N22122 1895 34 WP MM NOT_NAMED 1895-09-19 12:00:00 NR 23.6214 116.684 main 0 0 __________P___ -1 23.6214 116.684 7 9 265
1895261N22122 1895 34 WP MM NOT_NAMED 1895-09-19 15:00:00 NR 23.5430 116.172 main 0 0 __________P___ -1 23.5430 116.172 7 10 259
1895261N22122 1895 34 WP MM NOT_NAMED 1895-09-19 16:00:00 NR 23.5000 116.000 main 0 0 __________O___ -1 23.5000 116.000 7 10 252
1895261N22122 1895 34 WP MM NOT_NAMED 1895-09-19 18:00:00 NR 23.3883 115.654 main 0 0 __________P___ -1 23.3883 115.654 7 10 247
1895261N22122 1895 34 WP MM NOT_NAMED 1895-09-19 21:00:00 NR 23.1670 115.131 main 0 0 __________P___ -1 23.1670 115.131 7 11 243
1895261N22122 1895 34 WP MM NOT_NAMED 1895-09-20 00:00:00 NR 22.8982 114.604 main 0 0 __________P___ -1 22.8982 114.604 7 11 240
1895261N22122 1895 34 WP MM NOT_NAMED 1895-09-20 03:00:00 NR 22.6016 114.076 main 0 0 __________P___ -1 22.6016 114.076 7 11 238
1895261N22122 1895 34 WP MM NOT_NAMED 1895-09-20 04:00:00 NR 22.5000 113.900 main 0 __________O___ -1 22.5000 113.900 7 12 238

デジタル台風データ・検索

IBTrACS Databaseについて

本データベースは、米国NOAAが公開する1842年以降の世界の熱帯低気圧のベストトラックデータアーカイブInternational Best Track Archive for Climate Stewardship (IBTrACS)を、ウェブで閲覧しやすい形式に変換したものです。

最終更新日:2021-10-21